sensor_id;sensor_type;location;lat;lon;timestamp;pressure;altitude;pressure_sealevel;temperature;humidity
46614;BME280;32338;50.430;6.806;2023-06-22T00:00:51;67413.94;;;18.27;100.00
46614;BME280;32338;50.430;6.806;2023-06-22T00:03:20;67415.06;;;18.28;100.00
46614;BME280;32338;50.430;6.806;2023-06-22T00:05:48;67419.03;;;18.31;100.00
46614;BME280;32338;50.430;6.806;2023-06-22T00:08:15;67404.84;;;18.19;100.00
46614;BME280;32338;50.430;6.806;2023-06-22T00:10:45;67395.22;;;18.10;100.00
46614;BME280;32338;50.430;6.806;2023-06-22T00:13:18;67382.75;;;17.98;100.00
46614;BME280;32338;50.430;6.806;2023-06-22T00:15:51;67395.03;;;18.07;100.00
46614;BME280;32338;50.430;6.806;2023-06-22T00:18:18;67392.38;;;18.07;100.00
46614;BME280;32338;50.430;6.806;2023-06-22T00:20:47;67397.50;;;18.12;100.00
46614;BME280;32338;50.430;6.806;2023-06-22T00:23:17;67396.53;;;18.13;100.00
46614;BME280;32338;50.430;6.806;2023-06-22T00:25:44;67409.78;;;18.21;100.00
46614;BME280;32338;50.430;6.806;2023-06-22T00:28:11;67408.09;;;18.19;100.00
46614;BME280;32338;50.430;6.806;2023-06-22T00:30:37;67402.41;;;18.14;100.00
46614;BME280;32338;50.430;6.806;2023-06-22T00:33:05;67388.25;;;18.01;100.00
46614;BME280;32338;50.430;6.806;2023-06-22T00:35:34;67381.63;;;17.97;100.00
46614;BME280;32338;50.430;6.806;2023-06-22T00:38:01;67395.41;;;18.05;100.00
46614;BME280;32338;50.430;6.806;2023-06-22T00:40:31;67386.34;;;18.04;100.00
46614;BME280;32338;50.430;6.806;2023-06-22T00:43:04;67402.41;;;18.14;100.00
46614;BME280;32338;50.430;6.806;2023-06-22T00:45:31;67398.22;;;18.15;100.00
46614;BME280;32338;50.430;6.806;2023-06-22T00:47:59;67402.78;;;18.19;100.00
46614;BME280;32338;50.430;6.806;2023-06-22T00:50:32;67402.03;;;18.16;100.00
46614;BME280;32338;50.430;6.806;2023-06-22T00:53:03;67399.19;;;18.13;100.00
46614;BME280;32338;50.430;6.806;2023-06-22T00:55:35;67401.66;;;18.11;100.00
46614;BME280;32338;50.430;6.806;2023-06-22T00:58:04;67397.88;;;18.10;100.00
46614;BME280;32338;50.430;6.806;2023-06-22T01:00:35;67391.25;;;18.06;100.00
46614;BME280;32338;50.430;6.806;2023-06-22T01:03:03;67396.91;;;18.11;100.00
46614;BME280;32338;50.430;6.806;2023-06-22T01:05:36;67396.53;;;18.13;100.00
46614;BME280;32338;50.430;6.806;2023-06-22T01:08:19;67393.53;;;18.08;100.00
46614;BME280;32338;50.430;6.806;2023-06-22T01:10:51;67390.31;;;18.08;100.00
46614;BME280;32338;50.430;6.806;2023-06-22T01:13:27;67391.84;;;18.07;100.00
46614;BME280;32338;50.430;6.806;2023-06-22T01:15:57;67396.53;;;18.13;100.00
46614;BME280;32338;50.430;6.806;2023-06-22T01:18:29;67404.88;;;18.11;100.00
46614;BME280;32338;50.430;6.806;2023-06-22T01:21:04;67393.91;;;18.06;100.00
46614;BME280;32338;50.430;6.806;2023-06-22T01:23:44;67392.22;;;18.05;100.00
46614;BME280;32338;50.430;6.806;2023-06-22T01:26:19;67387.09;;;18.00;100.00
46614;BME280;32338;50.430;6.806;2023-06-22T01:28:50;67390.88;;;18.01;100.00
46614;BME280;32338;50.430;6.806;2023-06-22T01:31:24;67382.75;;;17.98;100.00
46614;BME280;32338;50.430;6.806;2023-06-22T01:33:58;67382.56;;;17.96;100.00
46614;BME280;32338;50.430;6.806;2023-06-22T01:36:26;67378.78;;;17.95;100.00
46614;BME280;32338;50.430;6.806;2023-06-22T01:38:58;67395.41;;;18.05;100.00
46614;BME280;32338;50.430;6.806;2023-06-22T01:41:27;67384.44;;;18.00;100.00
46614;BME280;32338;50.430;6.806;2023-06-22T01:44:00;67386.53;;;17.99;100.00
46614;BME280;32338;50.430;6.806;2023-06-22T01:46:30;67381.63;;;17.97;100.00
46614;BME280;32338;50.430;6.806;2023-06-22T01:48:58;67378.03;;;17.92;100.00
46614;BME280;32338;50.430;6.806;2023-06-22T01:51:28;67375.94;;;17.92;100.00
46614;BME280;32338;50.430;6.806;2023-06-22T01:53:54;67383.16;;;17.89;100.00
46614;BME280;32338;50.430;6.806;2023-06-22T01:56:21;67379.34;;;17.95;100.00
46614;BME280;32338;50.430;6.806;2023-06-22T01:58:51;67375.94;;;17.92;100.00
46614;BME280;32338;50.430;6.806;2023-06-22T02:01:26;67364.97;;;17.80;100.00
46614;BME280;32338;50.430;6.806;2023-06-22T02:04:03;67353.25;;;17.72;100.00
46614;BME280;32338;50.430;6.806;2023-06-22T02:06:33;67349.84;;;17.69;100.00
46614;BME280;32338;50.430;6.806;2023-06-22T02:09:07;67338.34;;;17.56;100.00
46614;BME280;32338;50.430;6.806;2023-06-22T02:11:36;67328.88;;;17.49;100.00
46614;BME280;32338;50.430;6.806;2023-06-22T02:14:04;67336.06;;;17.54;100.00
46614;BME280;32338;50.430;6.806;2023-06-22T02:16:34;67342.31;;;17.59;100.00
46614;BME280;32338;50.430;6.806;2023-06-22T02:19:03;67334.56;;;17.55;100.00
46614;BME280;32338;50.430;6.806;2023-06-22T02:21:31;67329.44;;;17.50;100.00
46614;BME280;32338;50.430;6.806;2023-06-22T02:23:58;67325.88;;;17.44;100.00
46614;BME280;32338;50.430;6.806;2023-06-22T02:26:26;67319.81;;;17.41;100.00
46614;BME280;32338;50.430;6.806;2023-06-22T02:28:53;67325.13;;;17.41;100.00
46614;BME280;32338;50.430;6.806;2023-06-22T02:31:20;67317.56;;;17.39;100.00
46614;BME280;32338;50.430;6.806;2023-06-22T02:33:48;67315.84;;;17.38;100.00
46614;BME280;32338;50.430;6.806;2023-06-22T02:36:15;67323.59;;;17.42;100.00
46614;BME280;32338;50.430;6.806;2023-06-22T02:38:42;67325.28;;;17.44;100.00
46614;BME280;32338;50.430;6.806;2023-06-22T02:41:13;67320.59;;;17.37;100.00
46614;BME280;32338;50.430;6.806;2023-06-22T02:43:43;67317.38;;;17.37;100.00
46614;BME280;32338;50.430;6.806;2023-06-22T02:46:10;67311.50;;;17.29;100.00
46614;BME280;32338;50.430;6.806;2023-06-22T02:48:37;67301.50;;;17.22;100.00
46614;BME280;32338;50.430;6.806;2023-06-22T02:51:05;67288.25;;;17.15;100.00
46614;BME280;32338;50.430;6.806;2023-06-22T02:53:31;67286.38;;;17.11;100.00
46614;BME280;32338;50.430;6.806;2023-06-22T02:55:58;67276.38;;;17.04;100.00
46614;BME280;32338;50.430;6.806;2023-06-22T02:58:26;67279.41;;;17.02;100.00
46614;BME280;32338;50.430;6.806;2023-06-22T03:00:53;67277.72;;;17.00;100.00
46614;BME280;32338;50.430;6.806;2023-06-22T03:03:20;67267.69;;;16.94;100.00
46614;BME280;32338;50.430;6.806;2023-06-22T03:05:46;67267.69;;;16.94;100.00
46614;BME280;32338;50.430;6.806;2023-06-22T03:08:14;67261.44;;;16.88;100.00
46614;BME280;32338;50.430;6.806;2023-06-22T03:10:41;67240.50;;;16.69;100.00
46614;BME280;32338;50.430;6.806;2023-06-22T03:13:08;67236.34;;;16.63;100.00
46614;BME280;32338;50.430;6.806;2023-06-22T03:15:34;67245.03;;;16.73;100.00
46614;BME280;32338;50.430;6.806;2023-06-22T03:18:01;67262.41;;;16.86;100.00
46614;BME280;32338;50.430;6.806;2023-06-22T03:20:28;67263.72;;;16.90;100.00
46614;BME280;32338;50.430;6.806;2023-06-22T03:22:58;67269.00;;;16.97;100.00
46614;BME280;32338;50.430;6.806;2023-06-22T03:25:27;67273.38;;;16.99;100.00
46614;BME280;32338;50.430;6.806;2023-06-22T03:27:53;67267.50;;;16.91;100.00
46614;BME280;32338;50.430;6.806;2023-06-22T03:30:21;67262.41;;;16.86;100.00
46614;BME280;32338;50.430;6.806;2023-06-22T03:32:48;67264.28;;;16.91;100.00
46614;BME280;32338;50.430;6.806;2023-06-22T03:35:14;67266.00;;;16.92;100.00
46614;BME280;32338;50.430;6.806;2023-06-22T03:37:41;67274.88;;;16.98;100.00
46614;BME280;32338;50.430;6.806;2023-06-22T03:40:08;67283.00;;;17.08;100.00
46614;BME280;32338;50.430;6.806;2023-06-22T03:42:37;67294.34;;;17.11;100.00
46614;BME280;32338;50.430;6.806;2023-06-22T03:45:04;67289.22;;;17.13;100.00
46614;BME280;32338;50.430;6.806;2023-06-22T03:47:31;67296.97;;;17.18;100.00
46614;BME280;32338;50.430;6.806;2023-06-22T03:49:58;67295.84;;;17.17;100.00
46614;BME280;32338;50.430;6.806;2023-06-22T03:52:25;67296.03;;;17.20;100.00
46614;BME280;32338;50.430;6.806;2023-06-22T03:54:51;67298.13;;;17.19;100.00
46614;BME280;32338;50.430;6.806;2023-06-22T03:57:18;67299.81;;;17.21;100.00
46614;BME280;32338;50.430;6.806;2023-06-22T03:59:46;67305.47;;;17.26;100.00
46614;BME280;32338;50.430;6.806;2023-06-22T04:02:13;67304.69;;;17.30;100.00
46614;BME280;32338;50.430;6.806;2023-06-22T04:04:39;67300.00;;;17.23;100.00
46614;BME280;32338;50.430;6.806;2023-06-22T04:07:06;67291.50;;;17.15;100.00
46614;BME280;32338;50.430;6.806;2023-06-22T04:09:33;67288.25;;;17.15;100.00
46614;BME280;32338;50.430;6.806;2023-06-22T04:12:00;67292.25;;;17.11;100.00
46614;BME280;32338;50.430;6.806;2023-06-22T04:14:27;67282.41;;;17.07;100.00
46614;BME280;32338;50.430;6.806;2023-06-22T04:16:55;67287.34;;;17.09;100.00
46614;BME280;32338;50.430;6.806;2023-06-22T04:19:21;67289.59;;;17.11;100.00
46614;BME280;32338;50.430;6.806;2023-06-22T04:21:48;67282.41;;;17.07;100.00
46614;BME280;32338;50.430;6.806;2023-06-22T04:24:15;67281.28;;;17.06;100.00
46614;BME280;32338;50.430;6.806;2023-06-22T04:26:42;67284.69;;;17.09;100.00
46614;BME280;32338;50.430;6.806;2023-06-22T04:29:11;67286.22;;;17.08;100.00
46614;BME280;32338;50.430;6.806;2023-06-22T04:31:37;67285.25;;;17.10;100.00
46614;BME280;32338;50.430;6.806;2023-06-22T04:34:07;67289.03;;;17.11;100.00
46614;BME280;32338;50.430;6.806;2023-06-22T04:36:35;67295.28;;;17.16;100.00
46614;BME280;32338;50.430;6.806;2023-06-22T04:39:05;67293.56;;;17.15;100.00
46614;BME280;32338;50.430;6.806;2023-06-22T04:41:32;67288.47;;;17.10;100.00
46614;BME280;32338;50.430;6.806;2023-06-22T04:44:08;67298.13;;;17.19;100.00
46614;BME280;32338;50.430;6.806;2023-06-22T04:46:35;67308.84;;;17.29;100.00
46614;BME280;32338;50.430;6.806;2023-06-22T04:49:08;67306.22;;;17.29;100.00
46614;BME280;32338;50.430;6.806;2023-06-22T04:51:38;67313.59;;;17.36;100.00
46614;BME280;32338;50.430;6.806;2023-06-22T04:54:05;67327.75;;;17.41;100.00
46614;BME280;32338;50.430;6.806;2023-06-22T04:56:32;67327.19;;;17.48;100.00
46614;BME280;32338;50.430;6.806;2023-06-22T04:58:59;67334.56;;;17.55;100.00
46614;BME280;32338;50.430;6.806;2023-06-22T05:01:26;67337.19;;;17.55;100.00
46614;BME280;32338;50.430;6.806;2023-06-22T05:03:52;67327.38;;;17.50;100.00
46614;BME280;32338;50.430;6.806;2023-06-22T05:06:22;67319.25;;;17.41;100.00
46614;BME280;32338;50.430;6.806;2023-06-22T05:08:51;67319.63;;;17.39;100.00
46614;BME280;32338;50.430;6.806;2023-06-22T05:11:17;67321.53;;;17.43;100.00
46614;BME280;32338;50.430;6.806;2023-06-22T05:13:44;67327.56;;;17.46;100.00
46614;BME280;32338;50.430;6.806;2023-06-22T05:16:11;67332.50;;;17.48;100.00
46614;BME280;32338;50.430;6.806;2023-06-22T05:18:38;67330.03;;;17.50;100.00
46614;BME280;32338;50.430;6.806;2023-06-22T05:21:04;67329.25;;;17.55;100.00
46614;BME280;32338;50.430;6.806;2023-06-22T05:23:32;67334.91;;;17.60;100.00
46614;BME280;32338;50.430;6.806;2023-06-22T05:25:59;67344.19;;;17.63;100.00
46614;BME280;32338;50.430;6.806;2023-06-22T05:28:26;67349.66;;;17.66;100.00
46614;BME280;32338;50.430;6.806;2023-06-22T05:30:53;67356.09;;;17.74;100.00
46614;BME280;32338;50.430;6.806;2023-06-22T05:33:19;67360.63;;;17.78;100.00
46614;BME280;32338;50.430;6.806;2023-06-22T05:35:46;67371.59;;;17.83;100.00
46614;BME280;32338;50.430;6.806;2023-06-22T05:38:13;67384.66;;;17.95;100.00
46614;BME280;32338;50.430;6.806;2023-06-22T05:40:42;67380.09;;;17.98;100.00
46614;BME280;32338;50.430;6.806;2023-06-22T05:43:08;67376.50;;;18.00;100.00
46614;BME280;32338;50.430;6.806;2023-06-22T05:45:35;67387.69;;;18.01;100.00
46614;BME280;32338;50.430;6.806;2023-06-22T05:48:02;67380.47;;;17.96;100.00
46614;BME280;32338;50.430;6.806;2023-06-22T05:50:29;67386.72;;;18.02;100.00
46614;BME280;32338;50.430;6.806;2023-06-22T05:52:55;67395.41;;;18.05;100.00
46614;BME280;32338;50.430;6.806;2023-06-22T05:55:22;67406.00;;;18.20;100.00
46614;BME280;32338;50.430;6.806;2023-06-22T05:57:50;67421.50;;;18.29;100.00
46614;BME280;32338;50.430;6.806;2023-06-22T06:00:17;67428.66;;;18.40;100.00
46614;BME280;32338;50.430;6.806;2023-06-22T06:02:44;67433.41;;;18.40;100.00
46614;BME280;32338;50.430;6.806;2023-06-22T06:05:11;67424.72;;;18.37;100.00
46614;BME280;32338;50.430;6.806;2023-06-22T06:07:39;67423.00;;;18.35;100.00
46614;BME280;32338;50.430;6.806;2023-06-22T06:10:06;67424.91;;;18.32;100.00
46614;BME280;32338;50.430;6.806;2023-06-22T06:12:33;67416.59;;;18.27;100.00
46614;BME280;32338;50.430;6.806;2023-06-22T06:15:01;67410.94;;;18.22;100.00
46614;BME280;32338;50.430;6.806;2023-06-22T06:17:28;67414.31;;;18.25;100.00
46614;BME280;32338;50.430;6.806;2023-06-22T06:19:54;67406.56;;;18.20;100.00
46614;BME280;32338;50.430;6.806;2023-06-22T06:22:21;67402.22;;;18.19;100.00
46614;BME280;32338;50.430;6.806;2023-06-22T06:24:48;67407.13;;;18.21;100.00
46614;BME280;32338;50.430;6.806;2023-06-22T06:27:15;67411.09;;;18.24;100.00
46614;BME280;32338;50.430;6.806;2023-06-22T06:29:43;67411.66;;;18.25;100.00
46614;BME280;32338;50.430;6.806;2023-06-22T06:32:12;67418.66;;;18.34;100.00
46614;BME280;32338;50.430;6.806;2023-06-22T06:34:39;67423.59;;;18.36;100.00
46614;BME280;32338;50.430;6.806;2023-06-22T06:37:06;67434.34;;;18.45;100.00
46614;BME280;32338;50.430;6.806;2023-06-22T06:39:32;67434.91;;;18.46;100.00
46614;BME280;32338;50.430;6.806;2023-06-22T06:41:59;67433.97;;;18.47;100.00
46614;BME280;32338;50.430;6.806;2023-06-22T06:44:25;67437.75;;;18.48;100.00
46614;BME280;32338;50.430;6.806;2023-06-22T06:46:53;67447.78;;;18.55;100.00
46614;BME280;32338;50.430;6.806;2023-06-22T06:49:21;67461.19;;;18.72;100.00
46614;BME280;32338;50.430;6.806;2023-06-22T06:51:47;67473.31;;;18.78;100.00
46614;BME280;32338;50.430;6.806;2023-06-22T06:54:14;67474.81;;;18.85;100.00
46614;BME280;32338;50.430;6.806;2023-06-22T06:56:41;67499.44;;;19.02;100.00
46614;BME280;32338;50.430;6.806;2023-06-22T06:59:10;67506.81;;;19.09;100.00
46614;BME280;32338;50.430;6.806;2023-06-22T07:01:36;67510.56;;;19.17;100.00
46614;BME280;32338;50.430;6.806;2023-06-22T07:04:03;67519.09;;;19.18;100.00
46614;BME280;32338;50.430;6.806;2023-06-22T07:06:31;67526.28;;;19.29;100.00
46614;BME280;32338;50.430;6.806;2023-06-22T07:08:59;67549.38;;;19.48;100.00
46614;BME280;32338;50.430;6.806;2023-06-22T07:11:27;67548.81;;;19.47;100.00
46614;BME280;32338;50.430;6.806;2023-06-22T07:13:54;67557.09;;;19.59;100.00
46614;BME280;32338;50.430;6.806;2023-06-22T07:16:20;67558.63;;;19.58;100.00
46614;BME280;32338;50.430;6.806;2023-06-22T07:18:48;67569.06;;;19.63;100.00
46614;BME280;32338;50.430;6.806;2023-06-22T07:21:14;67580.78;;;19.79;100.00
46614;BME280;32338;50.430;6.806;2023-06-22T07:23:42;67584.16;;;19.82;100.00
46614;BME280;32338;50.430;6.806;2023-06-22T07:26:09;67590.25;;;19.85;100.00
46614;BME280;32338;50.430;6.806;2023-06-22T07:28:37;67583.44;;;19.79;100.00
46614;BME280;32338;50.430;6.806;2023-06-22T07:31:06;67597.81;;;19.94;100.00
46614;BME280;32338;50.430;6.806;2023-06-22T07:33:33;67605.38;;;20.03;100.00
46614;BME280;32338;50.430;6.806;2023-06-22T07:35:59;67630.56;;;20.21;100.00
46614;BME280;32338;50.430;6.806;2023-06-22T07:38:26;67640.41;;;20.33;100.00
46614;BME280;32338;50.430;6.806;2023-06-22T07:40:54;67641.94;;;20.32;100.00
46614;BME280;32338;50.430;6.806;2023-06-22T07:43:21;67629.22;;;20.25;100.00
46614;BME280;32338;50.430;6.806;2023-06-22T07:45:48;67615.25;;;20.07;100.00
46614;BME280;32338;50.430;6.806;2023-06-22T07:48:17;67623.19;;;20.15;100.00
46614;BME280;32338;50.430;6.806;2023-06-22T07:50:44;67638.72;;;20.31;100.00
46614;BME280;32338;50.430;6.806;2023-06-22T07:53:10;67655.19;;;20.46;100.00
46614;BME280;32338;50.430;6.806;2023-06-22T07:55:37;67682.28;;;20.68;100.00
46614;BME280;32338;50.430;6.806;2023-06-22T07:58:05;67691.91;;;20.84;100.00
46614;BME280;32338;50.430;6.806;2023-06-22T08:00:34;67720.34;;;21.03;100.00
46614;BME280;32338;50.430;6.806;2023-06-22T08:03:01;67729.47;;;21.11;100.00
46614;BME280;32338;50.430;6.806;2023-06-22T08:05:28;67733.03;;;21.17;100.00
46614;BME280;32338;50.430;6.806;2023-06-22T08:07:55;67733.78;;;21.20;100.00
46614;BME280;32338;50.430;6.806;2023-06-22T08:10:22;67747.81;;;21.30;100.00
46614;BME280;32338;50.430;6.806;2023-06-22T08:12:49;67754.63;;;21.36;100.00
46614;BME280;32338;50.430;6.806;2023-06-22T08:15:18;67763.56;;;21.42;100.00
46614;BME280;32338;50.430;6.806;2023-06-22T08:17:45;67752.34;;;21.34;100.00
46614;BME280;32338;50.430;6.806;2023-06-22T08:20:15;67753.50;;;21.35;100.00
46614;BME280;32338;50.430;6.806;2023-06-22T08:22:42;67756.34;;;21.38;100.00
46614;BME280;32338;50.430;6.806;2023-06-22T08:25:10;67758.78;;;21.43;100.00
46614;BME280;32338;50.430;6.806;2023-06-22T08:27:38;67758.78;;;21.43;100.00
46614;BME280;32338;50.430;6.806;2023-06-22T08:30:06;67773.22;;;21.51;100.00
46614;BME280;32338;50.430;6.806;2023-06-22T08:32:34;67778.53;;;21.58;100.00
46614;BME280;32338;50.430;6.806;2023-06-22T08:35:01;67791.41;;;21.75;100.00
46614;BME280;32338;50.430;6.806;2023-06-22T08:37:28;67804.28;;;21.84;100.00
46614;BME280;32338;50.430;6.806;2023-06-22T08:40:03;67813.63;;;21.88;100.00
46614;BME280;32338;50.430;6.806;2023-06-22T08:42:34;67820.59;;;21.96;100.00
46614;BME280;32338;50.430;6.806;2023-06-22T08:45:01;67831.00;;;22.08;100.00
46614;BME280;32338;50.430;6.806;2023-06-22T08:47:36;67846.78;;;22.20;100.00
46614;BME280;32338;50.430;6.806;2023-06-22T08:50:03;67860.81;;;22.30;100.00
46614;BME280;32338;50.430;6.806;2023-06-22T08:52:31;67867.63;;;22.37;100.00
46614;BME280;32338;50.430;6.806;2023-06-22T08:54:58;67879.19;;;22.49;100.00
46614;BME280;32338;50.430;6.806;2023-06-22T08:57:27;67884.16;;;22.51;100.00
46614;BME280;32338;50.430;6.806;2023-06-22T08:59:54;67885.31;;;22.53;100.00
46614;BME280;32338;50.430;6.806;2023-06-22T09:02:23;67877.50;;;22.48;100.00
46614;BME280;32338;50.430;6.806;2023-06-22T09:04:51;67884.88;;;22.55;100.00
46614;BME280;32338;50.430;6.806;2023-06-22T09:07:21;67880.50;;;22.53;100.00
46614;BME280;32338;50.430;6.806;2023-06-22T09:09:50;67872.00;;;22.45;100.00
46614;BME280;32338;50.430;6.806;2023-06-22T09:12:26;67878.66;;;22.49;100.00
46614;BME280;32338;50.430;6.806;2023-06-22T09:14:58;67874.88;;;22.41;100.00
46614;BME280;32338;50.430;6.806;2023-06-22T09:17:28;67845.63;;;22.19;100.00
46614;BME280;32338;50.430;6.806;2023-06-22T09:20:04;67815.28;;;21.96;100.00
46614;BME280;32338;50.430;6.806;2023-06-22T09:22:33;67806.97;;;21.84;100.00
46614;BME280;32338;50.430;6.806;2023-06-22T09:25:00;67793.31;;;21.72;100.00
46614;BME280;32338;50.430;6.806;2023-06-22T09:27:28;67789.50;;;21.70;100.00
46614;BME280;32338;50.430;6.806;2023-06-22T09:29:55;67783.09;;;21.62;100.00
46614;BME280;32338;50.430;6.806;2023-06-22T09:32:23;67770.38;;;21.48;100.00
46614;BME280;32338;50.430;6.806;2023-06-22T09:34:50;67754.63;;;21.36;100.00
46614;BME280;32338;50.430;6.806;2023-06-22T09:37:19;67749.69;;;21.34;100.00
46614;BME280;32338;50.430;6.806;2023-06-22T09:39:46;67756.16;;;21.35;100.00
46614;BME280;32338;50.430;6.806;2023-06-22T09:42:13;67751.78;;;21.34;100.00
46614;BME280;32338;50.430;6.806;2023-06-22T09:44:40;67757.31;;;21.36;100.00
46614;BME280;32338;50.430;6.806;2023-06-22T09:47:11;67761.28;;;21.40;100.00
46614;BME280;32338;50.430;6.806;2023-06-22T09:49:38;67764.13;;;21.43;100.00
46614;BME280;32338;50.430;6.806;2023-06-22T09:52:07;67768.66;;;21.47;100.00
46614;BME280;32338;50.430;6.806;2023-06-22T09:54:40;67764.28;;;21.45;100.00
46614;BME280;32338;50.430;6.806;2023-06-22T09:57:17;67764.13;;;21.43;100.00
46614;BME280;32338;50.430;6.806;2023-06-22T09:59:43;67759.34;;;21.43;100.00
46614;BME280;32338;50.430;6.806;2023-06-22T10:02:10;67762.97;;;21.42;100.00
46614;BME280;32338;50.430;6.806;2023-06-22T10:04:37;67754.63;;;21.36;100.00
46614;BME280;32338;50.430;6.806;2023-06-22T10:07:05;67737.19;;;21.23;100.00
46614;BME280;32338;50.430;6.806;2023-06-22T10:09:31;67712.00;;;20.98;100.00
46614;BME280;32338;50.430;6.806;2023-06-22T10:11:59;67688.88;;;20.79;100.00
46614;BME280;32338;50.430;6.806;2023-06-22T10:14:26;67663.53;;;20.51;100.00
46614;BME280;32338;50.430;6.806;2023-06-22T10:16:54;67623.56;;;20.20;100.00
46614;BME280;32338;50.430;6.806;2023-06-22T10:19:21;67590.78;;;19.92;100.00
46614;BME280;32338;50.430;6.806;2023-06-22T10:21:48;67561.84;;;19.59;100.00
46614;BME280;32338;50.430;6.806;2023-06-22T10:24:14;67532.91;;;19.33;100.00
46614;BME280;32338;50.430;6.806;2023-06-22T10:26:41;67504.13;;;19.09;100.00
46614;BME280;32338;50.430;6.806;2023-06-22T10:29:09;67495.63;;;19.01;100.00
46614;BME280;32338;50.430;6.806;2023-06-22T10:31:35;67517.75;;;19.21;100.00
46614;BME280;32338;50.430;6.806;2023-06-22T10:34:02;67518.34;;;19.22;100.00
46614;BME280;32338;50.430;6.806;2023-06-22T10:36:28;67517.94;;;19.24;100.00
46614;BME280;32338;50.430;6.806;2023-06-22T10:38:55;67529.28;;;19.34;100.00
46614;BME280;32338;50.430;6.806;2023-06-22T10:41:24;67539.88;;;19.41;100.00
46614;BME280;32338;50.430;6.806;2023-06-22T10:43:51;67546.53;;;19.45;100.00
46614;BME280;32338;50.430;6.806;2023-06-22T10:46:18;67554.47;;;19.52;100.00
46614;BME280;32338;50.430;6.806;2023-06-22T10:48:45;67549.38;;;19.48;100.00
46614;BME280;32338;50.430;6.806;2023-06-22T10:51:12;67528.00;;;19.31;100.00
46614;BME280;32338;50.430;6.806;2023-06-22T10:53:38;67532.34;;;19.32;100.00
46614;BME280;32338;50.430;6.806;2023-06-22T10:56:05;67537.06;;;19.39;100.00
46614;BME280;32338;50.430;6.806;2023-06-22T10:58:31;67551.25;;;19.52;100.00
46614;BME280;32338;50.430;6.806;2023-06-22T11:00:58;67569.97;;;19.69;100.00
46614;BME280;32338;50.430;6.806;2023-06-22T11:03:26;67592.72;;;19.89;100.00
46614;BME280;32338;50.430;6.806;2023-06-22T11:05:53;67630.94;;;20.27;100.00
46614;BME280;32338;50.430;6.806;2023-06-22T11:08:19;67684.94;;;20.68;100.00
46614;BME280;32338;50.430;6.806;2023-06-22T11:10:46;67706.13;;;20.97;100.00
46614;BME280;32338;50.430;6.806;2023-06-22T11:13:13;67686.44;;;20.75;100.00
46614;BME280;32338;50.430;6.806;2023-06-22T11:15:39;67676.97;;;20.61;100.00
46614;BME280;32338;50.430;6.806;2023-06-22T11:18:06;67694.22;;;20.79;100.00
46614;BME280;32338;50.430;6.806;2023-06-22T11:20:34;67685.88;;;20.74;100.00
46614;BME280;32338;50.430;6.806;2023-06-22T11:23:04;67687.00;;;20.75;100.00
46614;BME280;32338;50.430;6.806;2023-06-22T11:25:30;67696.84;;;20.86;100.00
46614;BME280;32338;50.430;6.806;2023-06-22T11:27:57;67673.94;;;20.63;100.00
46614;BME280;32338;50.430;6.806;2023-06-22T11:30:23;67656.16;;;20.45;100.00
46614;BME280;32338;50.430;6.806;2023-06-22T11:32:50;67672.63;;;20.60;100.00
46614;BME280;32338;50.430;6.806;2023-06-22T11:35:17;67659.16;;;20.50;100.00
46614;BME280;32338;50.430;6.806;2023-06-22T11:37:44;67672.97;;;20.65;100.00
46614;BME280;32338;50.430;6.806;2023-06-22T11:40:12;67681.31;;;20.70;100.00
46614;BME280;32338;50.430;6.806;2023-06-22T11:42:39;67665.41;;;20.55;100.00
46614;BME280;32338;50.430;6.806;2023-06-22T11:45:06;67652.72;;;20.41;100.00
46614;BME280;32338;50.430;6.806;2023-06-22T11:47:33;67644.75;;;20.34;100.00
46614;BME280;32338;50.430;6.806;2023-06-22T11:50:00;67641.72;;;20.36;100.00
46614;BME280;32338;50.430;6.806;2023-06-22T11:52:26;67631.88;;;20.25;100.00
46614;BME280;32338;50.430;6.806;2023-06-22T11:54:54;67639.44;;;20.34;100.00
46614;BME280;32338;50.430;6.806;2023-06-22T11:57:21;67647.03;;;20.36;100.00
46614;BME280;32338;50.430;6.806;2023-06-22T11:59:47;67677.34;;;20.66;100.00
46614;BME280;32338;50.430;6.806;2023-06-22T12:02:14;67717.50;;;21.00;100.00
46614;BME280;32338;50.430;6.806;2023-06-22T12:04:40;67722.81;;;21.08;100.00
46614;BME280;32338;50.430;6.806;2023-06-22T12:07:07;67711.63;;;21.00;100.00
46614;BME280;32338;50.430;6.806;2023-06-22T12:09:33;67729.41;;;21.18;100.00
46614;BME280;32338;50.430;6.806;2023-06-22T12:12:01;67760.31;;;21.42;100.00
46614;BME280;32338;50.430;6.806;2023-06-22T12:14:28;67786.84;;;21.70;100.00
46614;BME280;32338;50.430;6.806;2023-06-22T12:16:55;67810.78;;;21.85;100.00
46614;BME280;32338;50.430;6.806;2023-06-22T12:19:22;67815.69;;;21.87;100.00
46614;BME280;32338;50.430;6.806;2023-06-22T12:21:48;67815.66;;;21.94;100.00
46614;BME280;32338;50.430;6.806;2023-06-22T12:24:15;67815.88;;;21.90;100.00
46614;BME280;32338;50.430;6.806;2023-06-22T12:26:41;67815.88;;;21.90;100.00
46614;BME280;32338;50.430;6.806;2023-06-22T12:29:10;67834.44;;;22.11;100.00
46614;BME280;32338;50.430;6.806;2023-06-22T12:31:37;67874.84;;;22.48;100.00
46614;BME280;32338;50.430;6.806;2023-06-22T12:34:04;67829.31;;;22.07;100.00
46614;BME280;32338;50.430;6.806;2023-06-22T12:36:31;67808.84;;;21.88;100.00
46614;BME280;32338;50.430;6.806;2023-06-22T12:38:58;67824.41;;;21.97;100.00
46614;BME280;32338;50.430;6.806;2023-06-22T12:41:24;67857.16;;;22.32;100.00
46614;BME280;32338;50.430;6.806;2023-06-22T12:43:51;67866.31;;;22.40;100.00
46614;BME280;32338;50.430;6.806;2023-06-22T12:46:22;67898.53;;;22.67;100.00
46614;BME280;32338;50.430;6.806;2023-06-22T12:48:51;67875.22;;;22.46;100.00
46614;BME280;32338;50.430;6.806;2023-06-22T12:51:21;67894.56;;;22.63;100.00
46614;BME280;32338;50.430;6.806;2023-06-22T12:53:55;67899.13;;;22.67;100.00